Time;durP1;ratioP1;P1;durP2;ratioP2;P2;SDS_P1;SDS_P2;PMS_P1;PMS_P2;Temp;Humidity;BMP_temperature;BMP_pressure;BME280_temperature;BME280_humidity;BME280_pressure;Samples;Min_cycle;Max_cycle;Signal;HPM_P1;HPM_P2
2021/11/18 00:00:20;;;;;;;16.17;5.33;;;;;;;;;;5018613;28;20311;-72
2021/11/18 00:02:46;;;;;;;14.57;5.17;;;;;;;;;;5031000;28;20224;-71
2021/11/18 00:05:13;;;;;;;12.03;4.63;;;;;;;;;;4997220;28;20811;-72
2021/11/18 00:07:44;;;;;;;11.83;4.57;;;;;;;;;;4995361;28;20221;-71
2021/11/18 00:10:37;;;;;;;30.53;14.23;;;;;;;;;;4997769;28;20216;-71
2021/11/18 00:13:06;;;;;;;13.10;5.80;;;;;;;;;;5025430;28;20232;-71
2021/11/18 00:15:32;;;;;;;15.23;5.17;;;;;;;;;;5014353;28;20228;-72
2021/11/18 00:18:00;;;;;;;11.43;4.70;;;;;;;;;;5014620;28;20216;-72
2021/11/18 00:20:28;;;;;;;14.60;5.37;;;;;;;;;;5030932;28;20220;-71
2021/11/18 00:22:55;;;;;;;11.47;4.60;;;;;;;;;;4998463;28;20215;-72
2021/11/18 00:25:21;;;;;;;11.47;4.60;;;;;;;;;;5031590;28;20248;-72
2021/11/18 00:27:47;;;;;;;20.27;5.20;;;;;;;;;;5014890;28;20220;-72
2021/11/18 00:30:12;;;;;;;13.10;4.97;;;;;;;;;;4997418;28;20468;-72
2021/11/18 00:32:38;;;;;;;13.87;4.23;;;;;;;;;;5014870;28;20227;-72
2021/11/18 00:35:05;;;;;;;13.43;4.90;;;;;;;;;;5029517;28;20315;-72
2021/11/18 00:37:35;;;;;;;10.10;4.47;;;;;;;;;;4998889;28;20721;-72
2021/11/18 00:40:03;;;;;;;14.60;4.67;;;;;;;;;;4998303;28;20686;-72
2021/11/18 00:42:31;;;;;;;12.00;4.57;;;;;;;;;;5022085;28;20303;-72
2021/11/18 00:44:57;;;;;;;14.10;4.70;;;;;;;;;;5013528;28;20224;-72
2021/11/18 00:47:24;;;;;;;11.63;4.47;;;;;;;;;;5013872;28;20216;-71
2021/11/18 00:49:50;;;;;;;15.43;4.73;;;;;;;;;;5014211;28;20222;-71
2021/11/18 00:52:17;;;;;;;14.37;4.93;;;;;;;;;;5030015;28;20219;-72
2021/11/18 00:54:42;;;;;;;14.77;4.47;;;;;;;;;;5013784;28;20651;-73
2021/11/18 00:57:08;;;;;;;15.77;4.93;;;;;;;;;;5029803;28;20641;-72
2021/11/18 00:59:33;;;;;;;18.57;5.37;;;;;;;;;;5014150;28;20220;-72
2021/11/18 01:01:59;;;;;;;12.17;4.27;;;;;;;;;;5010517;28;20241;-72
2021/11/18 01:04:31;;;;;;;13.07;4.60;;;;;;;;;;5028690;28;20224;-71
2021/11/18 01:07:02;;;;;;;13.97;4.50;;;;;;;;;;5014349;28;20712;-73
2021/11/18 01:09:29;;;;;;;15.83;4.43;;;;;;;;;;5013451;28;20220;-73
2021/11/18 01:11:56;;;;;;;18.23;4.73;;;;;;;;;;5031516;28;20212;-72
2021/11/18 01:14:23;;;;;;;15.50;4.67;;;;;;;;;;5013267;28;20246;-72
2021/11/18 01:16:53;;;;;;;16.43;4.73;;;;;;;;;;5030219;28;20238;-72
2021/11/18 01:19:23;;;;;;;12.57;4.27;;;;;;;;;;5013640;28;20575;-71
2021/11/18 01:21:54;;;;;;;12.37;4.10;;;;;;;;;;5019167;28;20232;-72
2021/11/18 01:24:19;;;;;;;13.43;4.70;;;;;;;;;;4996987;28;20231;-72
2021/11/18 01:27:11;;;;;;;11.87;4.73;;;;;;;;;;5014744;28;20208;-71
2021/11/18 01:29:38;;;;;;;18.43;5.00;;;;;;;;;;5029689;28;20270;-72
2021/11/18 01:32:05;;;;;;;14.53;4.50;;;;;;;;;;5020164;28;20705;-72
2021/11/18 01:34:36;;;;;;;12.33;4.63;;;;;;;;;;4997387;28;20219;-72
2021/11/18 01:37:03;;;;;;;13.80;3.83;;;;;;;;;;5029850;28;20223;-71
2021/11/18 01:39:30;;;;;;;12.83;4.10;;;;;;;;;;5013302;28;20223;-72
2021/11/18 01:41:59;;;;;;;11.93;3.97;;;;;;;;;;5013448;28;20220;-71
2021/11/18 01:44:28;;;;;;;16.07;4.63;;;;;;;;;;5012319;28;20273;-73
2021/11/18 01:47:00;;;;;;;12.70;4.13;;;;;;;;;;4994443;28;20209;-71
2021/11/18 01:49:28;;;;;;;13.03;4.27;;;;;;;;;;4993996;28;20225;-72
2021/11/18 01:51:55;;;;;;;14.43;3.97;;;;;;;;;;4996713;28;20204;-72
2021/11/18 01:54:24;;;;;;;13.60;3.80;;;;;;;;;;4996318;28;20220;-72
2021/11/18 01:56:53;;;;;;;10.87;3.83;;;;;;;;;;4995269;28;20216;-72
2021/11/18 01:59:33;;;;;;;12.83;4.23;;;;;;;;;;4978478;28;20300;-71
2021/11/18 02:02:18;;;;;;;15.20;3.93;;;;;;;;;;5004181;28;20238;-71
2021/11/18 02:05:10;;;;;;;11.97;4.17;;;;;;;;;;5028782;28;20223;-72
2021/11/18 02:07:42;;;;;;;13.60;4.27;;;;;;;;;;5000290;28;20236;-72
2021/11/18 02:10:12;;;;;;;13.87;3.60;;;;;;;;;;4997449;28;20212;-72
2021/11/18 02:12:40;;;;;;;11.93;4.00;;;;;;;;;;5003995;28;20249;-72
2021/11/18 02:15:20;;;;;;;9.50;3.70;;;;;;;;;;5028029;28;20299;-72
2021/11/18 02:17:48;;;;;;;13.47;3.80;;;;;;;;;;5012347;28;20221;-72
2021/11/18 02:20:26;;;;;;;15.10;4.47;;;;;;;;;;4980001;28;20224;-71
2021/11/18 02:22:55;;;;;;;13.33;3.30;;;;;;;;;;5001248;28;20243;-73
2021/11/18 02:25:28;;;;;;;10.67;3.40;;;;;;;;;;5007825;28;20232;-72
2021/11/18 02:27:54;;;;;;;15.07;3.83;;;;;;;;;;5018832;28;20694;-72
2021/11/18 02:30:26;;;;;;;12.10;4.00;;;;;;;;;;5012522;28;20250;-71
2021/11/18 02:32:54;;;;;;;13.53;4.00;;;;;;;;;;4985762;28;20212;-72
2021/11/18 02:35:29;;;;;;;11.67;3.93;;;;;;;;;;5012064;28;20762;-72
2021/11/18 02:37:55;;;;;;;15.23;3.57;;;;;;;;;;5029159;28;20216;-73
2021/11/18 02:40:21;;;;;;;17.57;3.90;;;;;;;;;;5028364;28;20236;-72
2021/11/18 02:42:46;;;;;;;19.70;4.13;;;;;;;;;;5011854;28;20227;-73
2021/11/18 02:45:21;;;;;;;14.50;3.37;;;;;;;;;;5011986;28;20216;-73
2021/11/18 02:47:49;;;;;;;15.80;4.13;;;;;;;;;;5013654;28;20218;-72
2021/11/18 02:50:25;;;;;;;17.13;4.00;;;;;;;;;;5011870;28;20219;-73
2021/11/18 02:52:53;;;;;;;10.17;3.67;;;;;;;;;;5014650;28;20302;-73
2021/11/18 02:55:24;;;;;;;16.77;3.70;;;;;;;;;;4996716;28;20228;-71
2021/11/18 02:57:50;;;;;;;15.10;4.47;;;;;;;;;;4994195;28;20690;-72
2021/11/18 03:00:27;;;;;;;16.23;4.33;;;;;;;;;;4992001;28;20221;-72
2021/11/18 03:02:53;;;;;;;12.97;3.73;;;;;;;;;;5013186;28;20214;-72
2021/11/18 03:05:21;;;;;;;13.83;3.80;;;;;;;;;;5009912;28;20224;-72
2021/11/18 03:07:51;;;;;;;13.50;3.20;;;;;;;;;;5025450;28;20712;-72
2021/11/18 03:10:23;;;;;;;16.97;3.83;;;;;;;;;;4995499;28;20926;-71
2021/11/18 03:12:51;;;;;;;14.20;3.90;;;;;;;;;;5012118;28;20245;-72
2021/11/18 03:15:21;;;;;;;8.70;3.30;;;;;;;;;;5028524;28;20224;-72
2021/11/18 03:17:47;;;;;;;11.80;3.50;;;;;;;;;;5012348;28;20219;-72
2021/11/18 03:20:26;;;;;;;12.03;3.37;;;;;;;;;;5029335;28;20232;-72
2021/11/18 03:22:55;;;;;;;15.80;4.00;;;;;;;;;;5028293;28;20250;-72
2021/11/18 03:25:26;;;;;;;14.37;4.23;;;;;;;;;;5029010;28;20255;-72
2021/11/18 03:27:57;;;;;;;15.20;4.23;;;;;;;;;;5029379;28;20298;-71
2021/11/18 03:30:32;;;;;;;13.77;4.37;;;;;;;;;;5011431;28;20295;-72
2021/11/18 03:33:13;;;;;;;14.73;3.87;;;;;;;;;;4998205;28;20223;-72
2021/11/18 03:35:41;;;;;;;10.83;3.70;;;;;;;;;;5012237;28;20223;-71
2021/11/18 03:38:11;;;;;;;15.37;4.63;;;;;;;;;;5014857;28;20212;-72
2021/11/18 03:40:43;;;;;;;12.17;4.07;;;;;;;;;;4999865;28;20224;-72
2021/11/18 03:43:15;;;;;;;15.87;4.17;;;;;;;;;;5007656;28;20631;-71
2021/11/18 03:45:40;;;;;;;12.50;4.73;;;;;;;;;;5015623;28;20317;-72
2021/11/18 03:48:07;;;;;;;13.87;4.97;;;;;;;;;;5015084;28;20659;-72
2021/11/18 03:50:36;;;;;;;15.20;4.60;;;;;;;;;;5015481;28;20212;-71
2021/11/18 03:53:06;;;;;;;19.47;5.10;;;;;;;;;;5015174;28;20216;-73
2021/11/18 03:55:39;;;;;;;13.13;4.70;;;;;;;;;;5015914;28;20642;-71
2021/11/18 03:58:06;;;;;;;13.70;4.37;;;;;;;;;;5031148;28;20246;-72
2021/11/18 04:00:37;;;;;;;13.60;4.57;;;;;;;;;;5031519;28;20251;-72
2021/11/18 04:03:03;;;;;;;16.43;6.53;;;;;;;;;;5014696;28;20227;-72
2021/11/18 04:05:38;;;;;;;14.30;5.37;;;;;;;;;;5031932;28;20219;-73
2021/11/18 04:08:04;;;;;;;19.30;5.57;;;;;;;;;;5030830;28;20219;-72
2021/11/18 04:10:31;;;;;;;13.90;4.83;;;;;;;;;;5014889;28;20277;-72
2021/11/18 04:12:57;;;;;;;12.60;5.23;;;;;;;;;;5013487;28;20228;-72
2021/11/18 04:15:26;;;;;;;14.23;4.93;;;;;;;;;;5030212;28;20273;-72
2021/11/18 04:17:57;;;;;;;18.80;5.80;;;;;;;;;;4999918;28;20295;-72
2021/11/18 04:20:29;;;;;;;16.73;5.87;;;;;;;;;;5027504;28;20231;-72
2021/11/18 04:23:02;;;;;;;17.87;6.10;;;;;;;;;;5031886;28;20216;-71
2021/11/18 04:25:29;;;;;;;16.10;5.27;;;;;;;;;;5014054;28;20230;-71
2021/11/18 04:27:58;;;;;;;14.80;6.20;;;;;;;;;;5014660;28;20232;-72
2021/11/18 04:30:31;;;;;;;19.83;5.90;;;;;;;;;;5004857;28;20213;-71
2021/11/18 04:33:16;;;;;;;17.03;5.50;;;;;;;;;;5011012;28;20694;-74
2021/11/18 04:35:42;;;;;;;15.90;6.30;;;;;;;;;;5014149;28;20227;-70
2021/11/18 04:38:11;;;;;;;15.73;5.77;;;;;;;;;;5013861;28;20792;-71
2021/11/18 04:40:39;;;;;;;16.27;6.10;;;;;;;;;;5039677;28;20311;-74
2021/11/18 04:43:04;;;;;;;13.93;5.83;;;;;;;;;;5005331;28;20222;-71
2021/11/18 04:45:31;;;;;;;15.83;6.40;;;;;;;;;;4998133;28;20757;-72
2021/11/18 04:48:00;;;;;;;16.97;6.80;;;;;;;;;;4997861;28;20303;-73
2021/11/18 04:50:31;;;;;;;17.77;6.10;;;;;;;;;;5020499;28;20219;-74
2021/11/18 04:53:01;;;;;;;20.67;6.67;;;;;;;;;;5014707;28;20239;-70
2021/11/18 04:55:27;;;;;;;15.97;6.07;;;;;;;;;;5029656;28;20293;-72
2021/11/18 04:57:55;;;;;;;17.93;6.33;;;;;;;;;;4997970;28;20221;-73
2021/11/18 05:00:26;;;;;;;17.53;6.30;;;;;;;;;;5031069;28;20216;-73
2021/11/18 05:02:53;;;;;;;18.80;6.40;;;;;;;;;;4996097;28;20220;-73
2021/11/18 05:05:20;;;;;;;18.50;6.20;;;;;;;;;;5002251;28;20308;-72
2021/11/18 05:07:46;;;;;;;20.93;6.57;;;;;;;;;;4989490;28;20248;-72
2021/11/18 05:10:12;;;;;;;20.30;6.57;;;;;;;;;;5012047;28;20228;-73
2021/11/18 05:12:37;;;;;;;16.13;6.43;;;;;;;;;;5004861;28;20294;-72
2021/11/18 05:15:07;;;;;;;17.40;6.57;;;;;;;;;;5029057;28;20230;-72
2021/11/18 05:17:35;;;;;;;20.63;6.93;;;;;;;;;;5013409;28;20219;-73
2021/11/18 05:20:01;;;;;;;19.43;5.77;;;;;;;;;;4997550;28;20645;-71
2021/11/18 05:22:29;;;;;;;18.47;6.53;;;;;;;;;;4996646;28;20219;-73
2021/11/18 05:24:54;;;;;;;16.70;6.70;;;;;;;;;;5029221;28;20705;-73
2021/11/18 05:27:24;;;;;;;23.07;6.47;;;;;;;;;;4997240;28;20290;-73
2021/11/18 05:29:52;;;;;;;16.93;7.13;;;;;;;;;;5029964;28;20699;-70
2021/11/18 05:32:23;;;;;;;16.97;6.53;;;;;;;;;;5008578;28;20708;-74
2021/11/18 05:34:59;;;;;;;19.63;7.20;;;;;;;;;;5015812;28;20219;-71
2021/11/18 05:37:30;;;;;;;20.53;7.40;;;;;;;;;;4996658;28;20223;-72
2021/11/18 05:39:58;;;;;;;23.40;7.07;;;;;;;;;;5030375;28;20689;-73
2021/11/18 05:42:27;;;;;;;20.30;7.60;;;;;;;;;;4983534;28;20228;-71
2021/11/18 05:44:56;;;;;;;17.67;7.30;;;;;;;;;;5012941;28;20317;-73
2021/11/18 05:47:22;;;;;;;19.70;6.83;;;;;;;;;;5009741;28;20710;-73
2021/11/18 05:49:48;;;;;;;18.47;7.53;;;;;;;;;;4977198;28;20797;-72
2021/11/18 05:52:25;;;;;;;22.90;7.07;;;;;;;;;;5013194;28;20228;-71
2021/11/18 05:54:51;;;;;;;22.83;6.90;;;;;;;;;;5013296;28;20643;-73
2021/11/18 05:57:17;;;;;;;22.57;7.80;;;;;;;;;;5028698;28;20366;-72
2021/11/18 05:59:46;;;;;;;17.50;8.30;;;;;;;;;;5028274;28;20228;-72
2021/11/18 06:02:12;;;;;;;19.27;8.10;;;;;;;;;;5012546;28;20224;-72
2021/11/18 06:04:37;;;;;;;21.83;8.20;;;;;;;;;;5012769;28;20739;-73
2021/11/18 06:07:08;;;;;;;22.13;7.70;;;;;;;;;;5029139;28;20227;-73
2021/11/18 06:09:38;;;;;;;15.93;7.37;;;;;;;;;;5012617;28;20231;-73
2021/11/18 06:12:09;;;;;;;22.50;8.47;;;;;;;;;;5013737;28;20216;-72
2021/11/18 06:14:35;;;;;;;16.67;7.50;;;;;;;;;;5012447;28;20350;-72
2021/11/18 06:17:04;;;;;;;23.40;8.03;;;;;;;;;;5010083;28;20220;-72
2021/11/18 06:19:32;;;;;;;19.73;7.77;;;;;;;;;;5028691;28;20224;-72
2021/11/18 06:22:00;;;;;;;19.00;7.47;;;;;;;;;;5008061;28;20303;-73
2021/11/18 06:24:40;;;;;;;14.97;7.77;;;;;;;;;;5004624;28;20282;-72
2021/11/18 06:27:06;;;;;;;21.07;7.77;;;;;;;;;;5012679;28;20302;-73
2021/11/18 06:29:33;;;;;;;21.03;8.37;;;;;;;;;;5012887;28;20603;-72
2021/11/18 06:32:00;;;;;;;21.97;8.20;;;;;;;;;;5002911;28;20246;-72
2021/11/18 06:34:26;;;;;;;20.77;8.40;;;;;;;;;;4995289;28;20216;-73
2021/11/18 06:36:53;;;;;;;20.43;9.87;;;;;;;;;;4997960;28;20221;-71
2021/11/18 06:39:27;;;;;;;21.53;9.13;;;;;;;;;;5008857;28;20235;-71
2021/11/18 06:41:52;;;;;;;21.33;10.13;;;;;;;;;;5016770;28;20307;-72
2021/11/18 06:44:23;;;;;;;22.47;10.73;;;;;;;;;;5012000;28;20235;-71
2021/11/18 06:46:49;;;;;;;26.27;10.07;;;;;;;;;;5012906;28;20273;-70
2021/11/18 06:49:14;;;;;;;21.03;9.33;;;;;;;;;;5009881;28;20215;-72
2021/11/18 06:51:41;;;;;;;18.93;9.40;;;;;;;;;;5006202;28;20635;-72
2021/11/18 06:54:11;;;;;;;21.87;9.40;;;;;;;;;;4995937;28;20212;-70
2021/11/18 06:56:37;;;;;;;26.60;9.77;;;;;;;;;;4993410;28;20220;-71
2021/11/18 06:59:03;;;;;;;20.60;9.97;;;;;;;;;;5008781;28;21618;-72
2021/11/18 07:01:37;;;;;;;22.33;9.10;;;;;;;;;;5028033;28;20233;-72
2021/11/18 07:04:07;;;;;;;28.10;10.53;;;;;;;;;;4995872;28;20224;-73
2021/11/18 07:06:37;;;;;;;18.57;9.77;;;;;;;;;;5023334;28;20227;-72
2021/11/18 07:09:07;;;;;;;27.67;10.67;;;;;;;;;;5011347;28;20220;-72
2021/11/18 07:11:36;;;;;;;23.50;10.90;;;;;;;;;;4999534;28;20232;-72
2021/11/18 07:14:04;;;;;;;26.60;11.27;;;;;;;;;;5012066;28;20339;-72
2021/11/18 07:16:33;;;;;;;24.03;11.40;;;;;;;;;;4997670;28;20217;-71
2021/11/18 07:19:05;;;;;;;29.53;11.73;;;;;;;;;;5033051;28;20212;-72
2021/11/18 07:21:32;;;;;;;26.80;11.37;;;;;;;;;;5010226;28;20609;-75
2021/11/18 07:24:04;;;;;;;23.63;11.53;;;;;;;;;;4998548;28;20223;-73
2021/11/18 07:26:31;;;;;;;28.83;12.80;;;;;;;;;;5027366;28;20364;-72
2021/11/18 07:29:00;;;;;;;24.67;11.60;;;;;;;;;;5045395;28;20650;-72
2021/11/18 07:31:26;;;;;;;30.73;12.03;;;;;;;;;;5032189;28;20208;-73
2021/11/18 07:33:55;;;;;;;24.07;11.83;;;;;;;;;;5032094;28;20235;-72
2021/11/18 07:36:20;;;;;;;29.97;11.73;;;;;;;;;;5014826;28;20617;-73
2021/11/18 07:38:48;;;;;;;25.63;12.90;;;;;;;;;;5027742;28;20223;-73
2021/11/18 07:41:14;;;;;;;24.77;12.47;;;;;;;;;;4989397;28;20245;-72
2021/11/18 07:43:49;;;;;;;22.73;12.90;;;;;;;;;;5029712;28;20223;-73
2021/11/18 07:46:34;;;;;;;22.50;10.80;;;;;;;;;;5018007;28;20220;-72
2021/11/18 07:49:04;;;;;;;30.73;11.73;;;;;;;;;;5033197;28;20224;-72
2021/11/18 07:51:37;;;;;;;24.03;11.63;;;;;;;;;;5029388;28;20219;-74
2021/11/18 07:54:12;;;;;;;29.77;12.93;;;;;;;;;;5026262;28;20220;-72
2021/11/18 07:56:40;;;;;;;22.83;10.87;;;;;;;;;;5028727;28;20284;-72
2021/11/18 07:59:09;;;;;;;27.50;12.57;;;;;;;;;;5026484;28;20224;-72
2021/11/18 08:01:41;;;;;;;22.40;11.17;;;;;;;;;;5025023;28;20286;-73
2021/11/18 08:04:11;;;;;;;32.50;13.27;;;;;;;;;;5020896;28;20216;-72
2021/11/18 08:06:42;;;;;;;27.50;12.80;;;;;;;;;;5007211;28;20308;-71
2021/11/18 08:09:10;;;;;;;21.53;11.23;;;;;;;;;;5021764;28;20395;-71
2021/11/18 08:11:47;;;;;;;28.90;11.93;;;;;;;;;;5010269;28;20247;-74
2021/11/18 08:14:14;;;;;;;33.10;11.73;;;;;;;;;;5008226;28;20660;-72
2021/11/18 08:16:42;;;;;;;25.00;11.00;;;;;;;;;;5013021;28;20298;-73
2021/11/18 08:19:10;;;;;;;23.00;11.23;;;;;;;;;;5022296;28;20243;-72
2021/11/18 08:21:37;;;;;;;23.77;11.23;;;;;;;;;;4998480;28;20250;-72
2021/11/18 08:24:04;;;;;;;27.13;11.20;;;;;;;;;;5018414;28;20311;-73
2021/11/18 08:26:31;;;;;;;24.03;10.13;;;;;;;;;;5024337;28;20225;-72
2021/11/18 08:29:01;;;;;;;25.30;11.17;;;;;;;;;;5005516;28;20278;-72
2021/11/18 08:31:27;;;;;;;29.53;11.60;;;;;;;;;;4998415;28;20216;-72
2021/11/18 08:34:14;;;;;;;22.10;10.70;;;;;;;;;;5030707;28;20227;-73
2021/11/18 08:36:40;;;;;;;25.73;12.03;;;;;;;;;;5031249;28;20226;-73
2021/11/18 08:39:08;;;;;;;24.23;12.20;;;;;;;;;;5004572;28;20215;-73
2021/11/18 08:41:36;;;;;;;19.77;10.90;;;;;;;;;;5030859;28;20235;-74
2021/11/18 08:44:05;;;;;;;21.20;10.73;;;;;;;;;;5000649;28;20230;-72
2021/11/18 08:46:33;;;;;;;20.37;11.00;;;;;;;;;;5014041;28;20598;-73
2021/11/18 08:49:01;;;;;;;22.97;11.57;;;;;;;;;;5030884;28;20219;-72
2021/11/18 08:51:34;;;;;;;26.10;10.77;;;;;;;;;;5000033;28;20223;-73
2021/11/18 08:54:04;;;;;;;27.83;10.53;;;;;;;;;;5018344;28;20231;-74
2021/11/18 08:56:31;;;;;;;26.07;10.43;;;;;;;;;;5013188;28;20217;-73
2021/11/18 08:58:59;;;;;;;22.67;10.90;;;;;;;;;;4997363;28;20576;-73
2021/11/18 09:01:35;;;;;;;23.77;10.27;;;;;;;;;;5010251;28;20224;-72
2021/11/18 09:04:03;;;;;;;23.23;10.37;;;;;;;;;;4998801;28;20224;-72
2021/11/18 09:06:30;;;;;;;22.60;10.07;;;;;;;;;;5013888;28;20223;-72
2021/11/18 09:08:57;;;;;;;21.13;10.53;;;;;;;;;;5030282;28;20303;-72
2021/11/18 09:11:28;;;;;;;21.33;9.27;;;;;;;;;;5029786;28;20228;-71
2021/11/18 09:13:55;;;;;;;22.53;10.70;;;;;;;;;;5007029;28;20313;-72
2021/11/18 09:16:28;;;;;;;21.00;10.63;;;;;;;;;;5013296;28;20212;-74
2021/11/18 09:19:10;;;;;;;27.00;10.60;;;;;;;;;;5000997;28;20240;-74
2021/11/18 09:21:37;;;;;;;19.90;9.83;;;;;;;;;;4997969;28;20220;-70
2021/11/18 09:24:11;;;;;;;23.17;10.23;;;;;;;;;;5012953;28;20215;-73
2021/11/18 09:26:41;;;;;;;24.23;10.80;;;;;;;;;;5014261;28;20281;-72
2021/11/18 09:29:08;;;;;;;24.10;9.77;;;;;;;;;;5009360;28;20244;-72
2021/11/18 09:31:58;;;;;;;21.63;9.97;;;;;;;;;;5013739;28;20230;-72
2021/11/18 09:34:26;;;;;;;21.53;10.17;;;;;;;;;;4998576;28;20230;-73
2021/11/18 09:36:52;;;;;;;25.50;9.10;;;;;;;;;;5013383;28;20220;-73
2021/11/18 09:39:20;;;;;;;24.13;10.07;;;;;;;;;;5029544;28;20747;-73
2021/11/18 09:41:57;;;;;;;20.80;8.77;;;;;;;;;;4999035;28;20233;-73
2021/11/18 09:45:08;;;;;;;25.30;9.63;;;;;;;;;;5032455;28;20646;-74
2021/11/18 09:48:17;;;;;;;19.70;8.57;;;;;;;;;;4999342;28;20236;-73
2021/11/18 09:50:56;;;;;;;23.13;9.60;;;;;;;;;;4991438;28;20219;-71
2021/11/18 09:53:41;;;;;;;23.10;8.97;;;;;;;;;;5009482;28;20220;-72
2021/11/18 09:56:28;;;;;;;25.23;9.97;;;;;;;;;;5026586;28;20219;-73
2021/11/18 09:59:28;;;;;;;19.03;8.33;;;;;;;;;;5013227;28;20224;-72
2021/11/18 10:02:31;;;;;;;24.33;8.47;;;;;;;;;;5010275;28;20694;-73
2021/11/18 10:05:05;;;;;;;19.33;8.83;;;;;;;;;;5013572;28;20315;-73
2021/11/18 10:07:52;;;;;;;17.80;8.37;;;;;;;;;;5013074;28;20243;-73
2021/11/18 10:10:52;;;;;;;21.27;8.50;;;;;;;;;;5013458;28;20224;-73
2021/11/18 10:13:39;;;;;;;17.97;7.70;;;;;;;;;;5017566;28;20216;-74
2021/11/18 10:16:26;;;;;;;19.23;8.60;;;;;;;;;;5012060;28;20289;-74
2021/11/18 10:18:54;;;;;;;21.80;8.30;;;;;;;;;;5045625;28;20595;-73
2021/11/18 10:21:23;;;;;;;21.93;8.83;;;;;;;;;;5039957;28;20224;-72
2021/11/18 10:23:55;;;;;;;22.87;9.00;;;;;;;;;;4996375;28;20247;-73
2021/11/18 10:26:26;;;;;;;22.03;8.37;;;;;;;;;;5002004;28;20219;-72
2021/11/18 10:29:03;;;;;;;18.20;8.07;;;;;;;;;;5028962;28;20235;-73
2021/11/18 10:31:49;;;;;;;22.00;8.33;;;;;;;;;;5040413;28;20220;-71
2021/11/18 10:34:27;;;;;;;17.70;7.80;;;;;;;;;;5028213;28;20851;-73
2021/11/18 10:37:29;;;;;;;24.13;8.77;;;;;;;;;;5012399;28;20220;-73
2021/11/18 10:40:00;;;;;;;21.80;8.33;;;;;;;;;;4971714;28;20244;-72
2021/11/18 10:42:36;;;;;;;21.40;8.30;;;;;;;;;;5018420;28;20231;-72
2021/11/18 10:45:11;;;;;;;22.40;8.90;;;;;;;;;;5012666;28;20215;-72
2021/11/18 10:47:45;;;;;;;19.10;7.93;;;;;;;;;;5019175;28;20246;-74
2021/11/18 10:50:37;;;;;;;21.67;8.80;;;;;;;;;;5034590;28;20230;-73
2021/11/18 10:53:31;;;;;;;22.87;8.43;;;;;;;;;;5018711;28;20219;-74
2021/11/18 10:55:59;;;;;;;17.43;9.37;;;;;;;;;;5035023;28;20216;-73
2021/11/18 10:58:25;;;;;;;24.53;9.03;;;;;;;;;;5034619;28;20224;-75
2021/11/18 11:01:14;;;;;;;19.03;8.33;;;;;;;;;;5031577;28;20280;-73
2021/11/18 11:03:45;;;;;;;22.97;8.97;;;;;;;;;;5016535;28;20254;-72
2021/11/18 11:06:15;;;;;;;23.00;8.57;;;;;;;;;;5017882;28;20211;-72
2021/11/18 11:09:03;;;;;;;21.53;9.07;;;;;;;;;;5018701;28;20247;-73
2021/11/18 11:11:50;;;;;;;21.03;9.10;;;;;;;;;;5020541;28;20273;-73
2021/11/18 11:14:57;;;;;;;25.93;9.60;;;;;;;;;;5011255;28;20228;-74
2021/11/18 11:18:07;;;;;;;18.20;8.27;;;;;;;;;;5034718;28;20303;-73
2021/11/18 11:20:52;;;;;;;19.60;8.43;;;;;;;;;;4955404;28;20795;-73
2021/11/18 11:23:38;;;;;;;25.47;9.77;;;;;;;;;;4955284;28;20222;-73
2021/11/18 11:26:18;;;;;;;19.00;8.40;;;;;;;;;;5013148;28;20219;-73
2021/11/18 11:28:58;;;;;;;20.33;8.53;;;;;;;;;;5034819;28;20243;-73
2021/11/18 11:31:45;;;;;;;18.27;8.23;;;;;;;;;;5036582;28;20277;-73
2021/11/18 11:34:38;;;;;;;17.67;8.43;;;;;;;;;;5034176;28;20220;-72
2021/11/18 11:37:27;;;;;;;21.23;8.30;;;;;;;;;;5035944;28;20259;-73
2021/11/18 11:40:08;;;;;;;21.00;8.67;;;;;;;;;;5034890;28;20248;-72
2021/11/18 11:43:01;;;;;;;21.97;8.67;;;;;;;;;;5029946;28;20224;-73
2021/11/18 11:45:38;;;;;;;22.03;8.43;;;;;;;;;;5014009;28;20216;-72
2021/11/18 11:48:22;;;;;;;19.23;8.47;;;;;;;;;;5032815;28;20681;-72
2021/11/18 11:51:10;;;;;;;21.00;8.13;;;;;;;;;;5034603;28;20215;-73
2021/11/18 11:53:49;;;;;;;20.37;7.87;;;;;;;;;;5015290;28;20628;-73
2021/11/18 11:56:29;;;;;;;21.20;7.87;;;;;;;;;;4999446;28;20224;-74
2021/11/18 11:59:17;;;;;;;22.60;8.07;;;;;;;;;;5015718;28;20212;-73
2021/11/18 12:01:56;;;;;;;16.23;7.60;;;;;;;;;;5031647;28;20760;-74
2021/11/18 12:04:46;;;;;;;20.60;8.23;;;;;;;;;;5030724;28;20657;-73
2021/11/18 12:07:35;;;;;;;21.37;7.40;;;;;;;;;;5007485;28;20702;-73
2021/11/18 12:10:06;;;;;;;22.37;8.50;;;;;;;;;;5012060;28;20223;-73
2021/11/18 12:12:38;;;;;;;22.33;7.97;;;;;;;;;;5027698;28;20404;-73
2021/11/18 12:15:16;;;;;;;21.17;7.37;;;;;;;;;;5027565;28;20357;-72
2021/11/18 12:17:52;;;;;;;18.43;6.73;;;;;;;;;;5031318;28;20303;-75
2021/11/18 12:20:25;;;;;;;20.53;7.70;;;;;;;;;;5014837;28;20294;-73
2021/11/18 12:22:56;;;;;;;18.93;7.00;;;;;;;;;;5005802;28;20609;-73
2021/11/18 12:26:07;;;;;;;19.63;7.53;;;;;;;;;;5031098;28;20224;-73
2021/11/18 12:28:37;;;;;;;19.00;6.27;;;;;;;;;;4978147;28;20320;-73
2021/11/18 12:31:02;;;;;;;16.27;6.33;;;;;;;;;;4989060;28;20756;-71
2021/11/18 12:33:30;;;;;;;19.37;6.70;;;;;;;;;;5020718;28;20248;-72
2021/11/18 12:36:21;;;;;;;22.03;8.03;;;;;;;;;;5031264;28;20708;-72
2021/11/18 12:39:10;;;;;;;19.60;7.50;;;;;;;;;;5027342;28;20566;-72
2021/11/18 12:41:38;;;;;;;19.27;6.90;;;;;;;;;;4996344;28;20223;-72
2021/11/18 12:44:19;;;;;;;18.47;7.40;;;;;;;;;;5020780;28;20228;-71
2021/11/18 12:47:20;;;;;;;16.33;6.70;;;;;;;;;;5030776;28;20610;-73
2021/11/18 12:49:55;;;;;;;15.57;5.87;;;;;;;;;;5024325;28;20224;-71
2021/11/18 12:52:31;;;;;;;19.13;7.10;;;;;;;;;;5013170;28;20216;-72
2021/11/18 12:55:15;;;;;;;18.83;6.07;;;;;;;;;;5013990;28;20235;-73
2021/11/18 12:57:52;;;;;;;14.03;5.87;;;;;;;;;;5031492;28;20224;-72
2021/11/18 13:00:17;;;;;;;17.87;5.80;;;;;;;;;;5031048;28;20232;-74
2021/11/18 13:02:45;;;;;;;14.63;6.00;;;;;;;;;;5030366;28;20594;-72
2021/11/18 13:05:13;;;;;;;16.13;5.50;;;;;;;;;;5013506;28;20708;-73
2021/11/18 13:07:49;;;;;;;19.67;6.30;;;;;;;;;;5014257;28;20216;-73
2021/11/18 13:10:35;;;;;;;22.70;6.60;;;;;;;;;;5014330;28;20239;-73
2021/11/18 13:13:01;;;;;;;21.27;6.17;;;;;;;;;;5032131;28;20216;-73
2021/11/18 13:15:44;;;;;;;21.57;6.53;;;;;;;;;;5014560;28;20216;-73
2021/11/18 13:18:30;;;;;;;21.13;6.97;;;;;;;;;;5015460;28;20228;-72
2021/11/18 13:21:03;;;;;;;17.20;7.03;;;;;;;;;;5032158;28;20643;-72
2021/11/18 13:23:40;;;;;;;20.63;6.37;;;;;;;;;;5030085;28;20298;-72
2021/11/18 13:26:11;;;;;;;24.00;9.57;;;;;;;;;;5030166;28;20435;-73
2021/11/18 13:29:22;;;;;;;24.30;12.07;;;;;;;;;;5031583;28;20246;-75
2021/11/18 13:31:59;;;;;;;30.13;15.30;;;;;;;;;;5046837;28;20647;-72
2021/11/18 13:34:30;;;;;;;22.93;6.70;;;;;;;;;;5039768;28;20219;-74
2021/11/18 13:37:12;;;;;;;19.33;5.80;;;;;;;;;;5014325;28;20220;-72
2021/11/18 13:39:52;;;;;;;15.97;5.67;;;;;;;;;;5030321;28;20216;-71
2021/11/18 13:42:31;;;;;;;18.13;5.83;;;;;;;;;;5025225;28;20240;-71
2021/11/18 13:45:20;;;;;;;20.93;7.40;;;;;;;;;;5026503;28;20236;-72
2021/11/18 13:48:03;;;;;;;21.03;6.80;;;;;;;;;;5043094;28;20341;-72
2021/11/18 13:50:33;;;;;;;15.90;6.53;;;;;;;;;;5006576;28;20583;-72
2021/11/18 13:53:03;;;;;;;21.20;7.10;;;;;;;;;;5021006;28;20251;-72
2021/11/18 13:55:52;;;;;;;17.67;6.80;;;;;;;;;;5004881;28;20717;-73
2021/11/18 13:58:33;;;;;;;17.33;6.90;;;;;;;;;;5024718;28;20232;-72
2021/11/18 14:01:02;;;;;;;17.47;6.70;;;;;;;;;;5024100;28;20231;-72
2021/11/18 14:03:39;;;;;;;17.77;6.00;;;;;;;;;;5023476;28;20228;-73
2021/11/18 14:06:11;;;;;;;21.00;7.17;;;;;;;;;;5022678;28;20227;-72
2021/11/18 14:08:44;;;;;;;18.57;6.67;;;;;;;;;;5018470;28;20252;-72
2021/11/18 14:11:15;;;;;;;16.53;6.37;;;;;;;;;;5009646;28;20243;-72
2021/11/18 14:13:43;;;;;;;25.13;7.27;;;;;;;;;;4996969;28;20216;-71
2021/11/18 14:16:29;;;;;;;16.50;6.27;;;;;;;;;;5030245;28;20705;-72
2021/11/18 14:19:06;;;;;;;24.03;6.50;;;;;;;;;;5028583;28;20215;-72
2021/11/18 14:21:56;;;;;;;18.37;6.90;;;;;;;;;;5028378;28;20232;-72
2021/11/18 14:24:35;;;;;;;19.17;6.40;;;;;;;;;;5011898;28;20311;-72
2021/11/18 14:27:11;;;;;;;18.80;6.63;;;;;;;;;;5013030;28;20250;-71
2021/11/18 14:29:44;;;;;;;18.77;6.60;;;;;;;;;;5028404;28;20755;-72
2021/11/18 14:32:19;;;;;;;19.73;6.40;;;;;;;;;;5012424;28;20220;-71
2021/11/18 14:34:50;;;;;;;17.67;6.30;;;;;;;;;;5028073;28;20224;-73
2021/11/18 14:37:37;;;;;;;19.83;6.57;;;;;;;;;;5020360;28;20218;-73
2021/11/18 14:40:08;;;;;;;17.67;6.30;;;;;;;;;;5023753;28;20222;-71
2021/11/18 14:42:51;;;;;;;17.83;6.10;;;;;;;;;;5012453;28;20346;-72
2021/11/18 14:45:32;;;;;;;15.67;6.03;;;;;;;;;;5008021;28;20633;-72
2021/11/18 14:48:18;;;;;;;19.67;7.10;;;;;;;;;;4994452;28;20216;-71
2021/11/18 14:51:24;;;;;;;19.00;6.33;;;;;;;;;;5012121;28;20611;-71
2021/11/18 14:53:50;;;;;;;19.67;5.80;;;;;;;;;;4952421;28;20234;-73
2021/11/18 14:56:18;;;;;;;18.23;6.50;;;;;;;;;;4986435;28;20674;-73
2021/11/18 14:58:46;;;;;;;15.73;6.20;;;;;;;;;;4984633;28;20236;-71
2021/11/18 15:01:27;;;;;;;19.47;6.03;;;;;;;;;;5033374;28;20252;-73
2021/11/18 15:04:26;;;;;;;16.03;6.20;;;;;;;;;;5011845;28;20596;-71